Time;durP1;ratioP1;P1;durP2;ratioP2;P2;SDS_P1;SDS_P2;PMS_P1;PMS_P2;Temp;Humidity;BMP_temperature;BMP_pressure;BME280_temperature;BME280_humidity;BME280_pressure;Samples;Min_cycle;Max_cycle;Signal;HPM_P1;HPM_P2
2022/12/25 15:44:12;;;;;;;;;2.00;2.00;;;;;20.75;43.48;100544.84;5307429;23;47014;-41
2022/12/25 15:46:40;;;;;;;;;3.75;3.00;;;;;20.83;43.47;100548.72;4965070;28;45445;-44
2022/12/25 15:49:06;;;;;;;;;3.00;3.00;;;;;20.83;43.95;100532.91;4962392;28;45530;-42
2022/12/25 15:51:31;;;;;;;;;3.00;3.00;;;;;20.92;43.22;100556.97;4960723;28;45375;-39
2022/12/25 15:53:57;;;;;;;;;3.50;3.50;;;;;20.89;43.64;100536.91;4961089;28;45285;-42
2022/12/25 15:56:24;;;;;;;;;3.25;3.00;;;;;20.99;43.39;100540.72;4961330;28;45370;-39
2022/12/25 15:58:50;;;;;;;;;4.25;3.00;;;;;21.01;43.37;100536.16;4961281;28;45442;-40
2022/12/25 16:01:17;;;;;;;;;3.00;3.00;;;;;21.07;43.35;100544.66;4960425;28;45698;-42
2022/12/25 16:03:43;;;;;;;;;4.00;4.00;;;;;21.10;43.52;100539.19;4961315;28;45335;-41
2022/12/25 16:06:15;;;;;;;;;5.00;3.00;;;;;21.13;43.07;100538.97;4962272;28;45263;-39
2022/12/25 16:08:41;;;;;;;;;7.00;3.25;;;;;21.15;43.22;100545.88;4962549;28;46927;-39
2022/12/25 16:11:07;;;;;;;;;2.75;2.25;;;;;21.16;43.12;100549.34;4969750;28;45671;-40
2022/12/25 16:13:33;;;;;;;;;3.50;3.00;;;;;21.21;43.54;100556.94;4964872;28;45205;-39
2022/12/25 16:16:00;;;;;;;;;6.00;3.75;;;;;21.24;43.19;100562.88;4961102;28;45347;-42
2022/12/25 16:18:25;;;;;;;;;5.00;2.75;;;;;21.26;43.08;100566.25;4960957;28;46197;-40
2022/12/25 16:20:52;;;;;;;;;2.00;2.00;;;;;21.27;42.83;100581.13;4960923;28;45313;-41
2022/12/25 16:23:17;;;;;;;;;3.00;3.00;;;;;21.31;42.93;100577.38;4966975;28;45436;-40
2022/12/25 16:25:43;;;;;;;;;4.00;4.00;;;;;21.33;43.01;100584.34;4967081;28;45460;-44
2022/12/25 16:28:09;;;;;;;;;3.75;3.75;;;;;21.35;43.40;100588.56;4966320;28;45467;-42
2022/12/25 16:30:35;;;;;;;;;3.00;3.00;;;;;21.37;42.63;100593.75;4969681;28;45944;-44
2022/12/25 16:33:01;;;;;;;;;3.25;2.00;;;;;21.40;42.95;100601.47;4974271;28;45331;-43
2022/12/25 16:35:27;;;;;;;;;3.00;3.00;;;;;21.41;42.69;100606.63;4975085;28;44895;-43
2022/12/25 16:37:52;;;;;;;;;3.00;3.00;;;;;21.44;42.56;100610.88;4974718;28;45462;-42
2022/12/25 16:40:17;;;;;;;;;3.50;3.25;;;;;21.44;42.92;100610.88;4965333;28;45286;-40
2022/12/25 16:42:42;;;;;;;;;3.50;2.50;;;;;21.47;42.65;100622.06;4959782;28;45341;-42
2022/12/25 16:45:11;;;;;;;;;1.25;1.25;;;;;21.50;42.65;100620.19;4961361;28;45525;-43
2022/12/25 16:47:36;;;;;;;;;3.00;3.00;;;;;21.51;43.00;100628.00;4969450;28;45282;-44
2022/12/25 16:50:02;;;;;;;;;3.50;3.00;;;;;21.53;42.49;100636.66;4967612;28;45372;-40
2022/12/25 16:52:30;;;;;;;;;5.25;3.00;;;;;21.54;42.56;100626.94;4970178;28;45345;-43
2022/12/25 16:54:56;;;;;;;;;3.50;3.50;;;;;21.55;42.86;100626.84;4977004;28;44777;-42
2022/12/25 16:57:21;;;;;;;;;3.00;2.00;;;;;21.55;42.80;100626.84;4966035;28;45408;-39
2022/12/25 16:59:46;;;;;;;;;4.25;3.00;;;;;21.53;42.43;100612.94;4964445;28;46576;-41
2022/12/25 17:02:15;;;;;;;;;3.00;3.00;;;;;21.57;42.54;100611.78;4979396;28;62612;-42
2022/12/25 17:04:41;;;;;;;;;3.50;3.00;;;;;21.57;42.86;100617.06;4993858;28;45396;-43
2022/12/25 17:07:06;;;;;;;;;4.00;4.00;;;;;21.58;42.69;100612.63;4990310;28;46385;-41
2022/12/25 17:09:32;;;;;;;;;4.00;4.00;;;;;21.58;42.89;100605.56;4983101;28;63713;-43
2022/12/25 17:11:57;;;;;;;;;4.00;4.00;;;;;21.59;42.48;100611.72;4996012;28;44809;-48
2022/12/25 17:14:24;;;;;;;;;3.25;3.25;;;;;21.57;42.42;100606.50;4998657;28;45407;-40
2022/12/25 17:16:49;;;;;;;;;3.00;3.00;;;;;21.58;42.35;100605.56;4999179;28;46527;-41
2022/12/25 17:19:18;;;;;;;;;4.00;4.00;;;;;21.57;42.61;100611.78;4991289;28;44704;-40
2022/12/25 17:21:44;;;;;;;;;6.25;3.50;;;;;21.58;42.66;100608.19;4985924;28;45294;-42
2022/12/25 17:24:09;;;;;;;;;4.00;4.00;;;;;21.58;42.54;100618.75;4982079;28;45163;-42
2022/12/25 17:26:36;;;;;;;;;4.00;4.00;;;;;21.58;42.72;100616.13;4979019;28;47417;-44
2022/12/25 17:29:02;;;;;;;;;6.50;5.00;;;;;21.54;42.73;100606.72;4978280;28;45433;-42
2022/12/25 17:31:28;;;;;;;;;3.00;3.00;;;;;21.56;42.93;100615.34;4978245;28;45346;-42
2022/12/25 17:33:53;;;;;;;;;3.75;3.75;;;;;21.57;42.50;100622.31;4978932;28;45242;-42
2022/12/25 17:36:20;;;;;;;;;5.00;4.50;;;;;21.53;42.63;100620.84;4978378;28;45419;-41
2022/12/25 17:38:46;;;;;;;;;3.00;3.00;;;;;21.57;42.40;100634.69;4977976;28;45435;-42
2022/12/25 17:41:14;;;;;;;;;4.50;3.50;;;;;21.51;42.86;100621.84;4976916;28;45532;-42
2022/12/25 17:43:41;;;;;;;;;3.00;3.00;;;;;21.54;42.50;100633.09;4978604;28;45300;-42
2022/12/25 17:46:11;;;;;;;;;3.00;2.75;;;;;21.54;42.49;100624.31;4978545;28;46185;-41
2022/12/25 17:48:36;;;;;;;;;3.75;3.75;;;;;21.53;42.33;100618.22;4978210;28;45437;-44
2022/12/25 17:51:03;;;;;;;;;4.25;3.75;;;;;21.54;42.41;100621.69;4977560;28;45491;-42
2022/12/25 17:53:29;;;;;;;;;3.00;3.00;;;;;21.53;42.52;100628.75;4977971;28;45486;-39
2022/12/25 17:55:58;;;;;;;;;4.00;3.00;;;;;21.51;42.58;100622.72;4978887;28;46070;-40
2022/12/25 17:58:24;;;;;;;;;6.00;3.50;;;;;21.54;42.54;100638.38;4977981;28;45787;-42
2022/12/25 18:00:49;;;;;;;;;4.75;3.75;;;;;21.53;42.58;100641.06;4977448;28;45345;-41
2022/12/25 18:03:15;;;;;;;;;3.25;3.00;;;;;21.52;42.46;100640.25;4976350;28;45368;-42
2022/12/25 18:05:41;;;;;;;;;3.25;3.25;;;;;21.43;42.68;100622.38;4977771;28;45575;-40
2022/12/25 18:08:07;;;;;;;;;6.00;3.50;;;;;21.54;42.44;100642.78;4977399;28;45939;-40
2022/12/25 18:10:37;;;;;;;;;3.75;3.75;;;;;21.46;42.84;100630.94;4977583;28;45218;-41
2022/12/25 18:13:02;;;;;;;;;5.00;3.75;;;;;21.50;42.54;100634.22;4977897;28;45476;-41
2022/12/25 18:15:28;;;;;;;;;4.00;3.00;;;;;21.52;42.59;100631.47;4981850;28;46065;-39
2022/12/25 18:17:53;;;;;;;;;5.00;4.00;;;;;21.54;42.71;100640.13;4982300;28;45301;-40
2022/12/25 18:20:18;;;;;;;;;5.00;5.00;;;;;21.55;42.67;100641.84;4982928;28;45337;-39
2022/12/25 18:22:44;;;;;;;;;5.25;4.75;;;;;21.54;42.63;100643.63;4987928;28;45603;-41
2022/12/25 18:25:09;;;;;;;;;3.00;3.00;;;;;21.55;42.23;100637.38;4982959;28;45266;-39
2022/12/25 18:27:34;;;;;;;;;4.25;4.25;;;;;21.54;42.36;100648.91;4989593;28;45377;-39
2022/12/25 18:30:00;;;;;;;;;4.25;3.50;;;;;21.50;42.50;100636.84;4983596;28;49122;-40
2022/12/25 18:32:25;;;;;;;;;5.00;5.00;;;;;21.55;42.35;100641.84;4976213;28;45660;-41
2022/12/25 18:34:54;;;;;;;;;6.00;4.00;;;;;21.55;42.47;100655.84;4976278;28;64248;-41
2022/12/25 18:37:20;;;;;;;;;5.25;4.50;;;;;21.55;42.49;100647.09;4977728;28;45161;-40
2022/12/25 18:39:46;;;;;;;;;4.00;4.00;;;;;21.56;42.50;100647.00;4977407;28;45274;-41
2022/12/25 18:44:55;;;;;;;;;4.25;3.00;;;;;21.57;42.50;100653.97;4977597;28;45862;-42
2022/12/25 18:47:21;;;;;;;;;3.75;3.50;;;;;21.52;42.49;100653.44;4978329;28;45346;-41
2022/12/25 18:49:47;;;;;;;;;4.00;3.75;;;;;21.45;42.40;100649.47;4978122;28;45324;-41
2022/12/25 18:52:12;;;;;;;;;6.50;4.50;;;;;21.45;42.55;100660.00;4991179;28;45324;-43
2022/12/25 18:54:37;;;;;;;;;5.50;4.00;;;;;21.43;42.53;100665.38;4992903;28;46929;-41
2022/12/25 18:57:03;;;;;;;;;4.25;3.25;;;;;21.40;42.58;100676.13;4980624;28;45447;-42
2022/12/25 18:59:28;;;;;;;;;6.00;4.00;;;;;21.37;42.45;100678.09;4979774;28;45345;-43
2022/12/25 19:01:54;;;;;;;;;3.00;3.00;;;;;21.36;42.72;100676.41;4982277;28;45311;-41
2022/12/25 19:04:19;;;;;;;;;3.50;3.50;;;;;21.35;42.80;100679.97;4981868;28;46401;-41
2022/12/25 19:06:45;;;;;;;;;4.00;4.00;;;;;21.36;42.75;100665.84;4980555;28;45423;-41
2022/12/25 19:09:10;;;;;;;;;5.00;3.00;;;;;21.31;42.79;100660.88;4979723;28;45352;-45
2022/12/25 19:11:40;;;;;;;;;6.75;4.00;;;;;21.34;42.68;100667.72;4980129;28;45507;-43
2022/12/25 19:14:06;;;;;;;;;3.50;3.25;;;;;21.31;42.53;100674.91;4962005;28;47209;-45
2022/12/25 19:16:33;;;;;;;;;4.25;4.00;;;;;21.29;42.73;100671.50;4963209;28;45214;-46
2022/12/25 19:18:59;;;;;;;;;6.00;4.25;;;;;21.23;42.84;100669.25;4961829;28;45404;-41
2022/12/25 19:21:24;;;;;;;;;4.00;4.00;;;;;21.26;42.70;100673.50;4975720;28;44877;-44
2022/12/25 19:23:52;;;;;;;;;3.75;3.75;;;;;21.23;42.94;100671.88;4968558;28;45462;-41
2022/12/25 19:26:17;;;;;;;;;6.00;4.00;;;;;21.23;42.97;100679.78;4961288;28;45766;-47
2022/12/25 19:28:42;;;;;;;;;5.00;3.75;;;;;21.20;42.87;100669.44;4959903;28;45277;-45
2022/12/25 19:31:08;;;;;;;;;4.00;4.00;;;;;21.17;42.74;100669.63;4960275;28;45514;-47
2022/12/25 19:33:37;;;;;;;;;4.25;3.00;;;;;21.15;42.84;100669.72;4961539;28;45983;-42
2022/12/25 19:36:08;;;;;;;;;4.25;4.25;;;;;21.11;42.59;100670.00;4960968;28;45374;-44
2022/12/25 19:38:34;;;;;;;;;4.50;4.00;;;;;21.13;43.05;100674.25;4958195;28;45421;-45
2022/12/25 19:41:05;;;;;;;;;5.00;4.00;;;;;21.12;42.84;100671.69;4960321;28;45284;-42
2022/12/25 19:43:39;;;;;;;;;5.00;5.00;;;;;21.10;42.71;100677.06;4959087;28;45946;-42
2022/12/25 19:46:07;;;;;;;;;5.25;3.50;;;;;21.09;42.83;100669.25;4958824;28;45797;-44
2022/12/25 19:48:33;;;;;;;;;8.00;4.50;;;;;21.07;42.71;100679.88;4958676;28;45350;-44
2022/12/25 19:50:59;;;;;;;;;5.00;5.00;;;;;21.06;42.88;100687.88;4958981;28;45417;-42
2022/12/25 19:53:25;;;;;;;;;5.25;4.25;;;;;21.06;42.98;100685.25;4970798;28;45272;-45
2022/12/25 19:55:51;;;;;;;;;5.50;3.75;;;;;21.05;43.15;100694.06;4967692;28;45582;-43
2022/12/25 19:58:19;;;;;;;;;4.00;4.00;;;;;21.03;42.74;100681.00;4960070;28;45709;-45
2022/12/25 20:00:44;;;;;;;;;4.25;3.75;;;;;21.01;43.17;100688.97;4958173;28;45444;-42
2022/12/25 20:03:10;;;;;;;;;7.75;4.50;;;;;20.96;43.08;100680.53;4958364;28;47080;-45
2022/12/25 20:05:35;;;;;;;;;3.50;3.50;;;;;21.00;43.31;100687.28;4958262;28;45504;-41
2022/12/25 20:08:01;;;;;;;;;4.50;4.00;;;;;21.00;42.97;100702.25;4962724;28;45434;-46
2022/12/25 20:10:26;;;;;;;;;5.25;4.50;;;;;20.98;43.06;100698.88;4965957;28;45474;-44
2022/12/25 20:12:52;;;;;;;;;5.00;4.00;;;;;20.96;43.28;100701.59;4965151;28;46314;-42
2022/12/25 20:15:18;;;;;;;;;4.00;4.00;;;;;20.94;43.03;100694.72;4958596;28;45372;-42
2022/12/25 20:17:45;;;;;;;;;4.50;3.25;;;;;20.94;43.16;100697.38;4959573;28;45392;-41
2022/12/25 20:20:11;;;;;;;;;3.25;3.25;;;;;20.93;43.42;100701.78;4961730;28;45553;-41
2022/12/25 20:22:36;;;;;;;;;3.75;3.50;;;;;20.92;43.23;100705.34;4961248;28;47067;-44
2022/12/25 20:25:02;;;;;;;;;5.00;3.00;;;;;20.91;43.56;100714.19;4961485;28;45337;-44
2022/12/25 20:27:27;;;;;;;;;4.00;3.75;;;;;20.89;43.18;100720.50;4958277;28;45494;-42
2022/12/25 20:29:52;;;;;;;;;4.00;4.00;;;;;20.88;43.54;100724.91;4956948;28;47927;-42
2022/12/25 20:32:18;;;;;;;;;4.00;4.00;;;;;20.88;43.33;100726.69;4960376;28;54039;-43
2022/12/25 20:34:43;;;;;;;;;3.67;3.67;;;;;20.85;43.55;100733.84;4960456;28;66281;-42
2022/12/25 20:37:08;;;;;;;;;3.00;3.00;;;;;20.85;43.28;100746.16;4958261;28;45392;-44
2022/12/25 20:39:34;;;;;;;;;6.00;4.25;;;;;20.86;43.65;100745.22;4958055;28;45532;-41
2022/12/25 20:41:59;;;;;;;;;4.50;3.25;;;;;20.85;43.72;100751.44;4961440;28;45505;-42
2022/12/25 20:44:25;;;;;;;;;3.67;3.00;;;;;20.83;43.67;100754.16;4968945;28;60424;-42
2022/12/25 20:46:50;;;;;;;;;3.00;3.00;;;;;20.79;43.25;100757.91;4968527;28;50616;-43
2022/12/25 20:49:15;;;;;;;;;4.75;4.75;;;;;20.82;43.56;100770.03;4960127;28;45379;-43
2022/12/25 20:51:40;;;;;;;;;5.00;3.00;;;;;20.77;43.36;100753.69;4973673;28;50687;-42
2022/12/25 20:54:08;;;;;;;;;4.67;4.00;;;;;20.81;43.73;100758.69;4971459;28;55256;-47
2022/12/25 20:56:34;;;;;;;;;4.25;3.50;;;;;20.82;43.31;100757.75;4958624;28;45223;-43
2022/12/25 20:58:59;;;;;;;;;4.50;4.50;;;;;20.81;43.72;100765.72;4958701;28;45358;-41
2022/12/25 21:01:26;;;;;;;;;7.50;4.00;;;;;20.80;43.78;100758.75;4959394;28;46661;-43
2022/12/25 21:03:53;;;;;;;;;3.00;3.00;;;;;20.80;43.52;100761.38;4960728;28;45340;-45
2022/12/25 21:06:19;;;;;;;;;6.25;5.00;;;;;20.80;43.76;100769.28;4960396;28;45491;-41
2022/12/25 21:08:44;;;;;;;;;4.00;3.25;;;;;20.75;43.60;100771.34;4962798;28;45397;-42
2022/12/25 21:11:10;;;;;;;;;4.75;4.50;;;;;20.75;43.79;100781.88;4960539;28;45676;-41
2022/12/25 21:13:40;;;;;;;;;3.00;3.00;;;;;20.76;43.56;100779.16;4964782;28;45435;-43
2022/12/25 21:16:08;;;;;;;;;4.00;4.00;;;;;20.78;43.83;100792.25;4968074;28;45281;-43
2022/12/25 21:18:34;;;;;;;;;4.00;4.00;;;;;20.73;43.92;100770.53;4971288;28;44816;-44
2022/12/25 21:21:04;;;;;;;;;5.25;3.50;;;;;20.77;44.01;100787.91;4971764;28;46081;-43
2022/12/25 21:23:30;;;;;;;;;3.25;3.00;;;;;20.76;43.37;100800.22;4969690;28;45525;-46
2022/12/25 21:25:55;;;;;;;;;3.00;3.00;;;;;20.76;43.80;100796.75;4965554;28;45188;-43
2022/12/25 21:28:21;;;;;;;;;4.25;4.00;;;;;20.71;43.99;100791.72;4973044;28;45247;-43
2022/12/25 21:30:47;;;;;;;;;5.00;5.00;;;;;20.69;43.90;100789.16;4961893;28;46270;-43
2022/12/25 21:36:07;;;;;;;;;6.25;5.00;;;;;20.72;43.56;100803.94;4958656;28;45265;-45
2022/12/25 21:38:32;;;;;;;;;4.00;3.00;;;;;20.72;43.49;100801.31;4960131;28;45336;-44
2022/12/25 21:41:05;;;;;;;;;5.50;4.25;;;;;20.71;43.81;100802.25;4959518;28;46197;-43
2022/12/25 21:43:32;;;;;;;;;2.50;2.50;;;;;20.72;43.73;100800.44;4957398;28;45287;-41
2022/12/25 21:46:07;;;;;;;;;3.25;3.25;;;;;20.70;44.04;100798.75;4957017;28;45490;-43
2022/12/25 21:48:34;;;;;;;;;5.00;4.00;;;;;20.65;43.96;100792.91;4957691;28;45333;-42
2022/12/25 21:53:50;;;;;;;;;4.00;4.00;;;;;20.68;43.77;100807.69;4946481;28;45376;-42
2022/12/25 21:56:16;;;;;;;;;5.25;4.00;;;;;20.68;44.10;100811.16;4957780;28;45397;-45
2022/12/25 21:58:41;;;;;;;;;3.50;3.50;;;;;20.67;43.81;100817.34;4960501;28;45171;-41
2022/12/25 22:01:07;;;;;;;;;4.00;2.00;;;;;20.67;43.96;100819.97;4965734;28;46779;-41
2022/12/25 22:03:33;;;;;;;;;5.00;3.75;;;;;20.66;43.73;100818.31;4966785;28;45780;-41
2022/12/25 22:08:42;;;;;;;;;3.50;3.00;;;;;20.65;43.63;100813.97;4976387;28;44763;-44
2022/12/25 22:14:48;;;;;;;;;5.00;4.50;;;;;20.62;44.02;100811.50;4975736;28;44987;-43
2022/12/25 22:19:43;;;;;;;;;5.00;4.25;;;;;20.60;43.67;100815.16;4958044;28;45325;-41
2022/12/25 22:22:11;;;;;;;;;2.50;1.25;;;;;20.64;43.59;100822.81;4957526;28;46518;-42
2022/12/25 22:24:37;;;;;;;;;2.50;2.50;;;;;20.64;43.53;100829.84;4958350;28;45694;-41
2022/12/25 22:27:02;;;;;;;;;4.25;4.25;;;;;20.60;44.08;100820.44;4961849;28;45255;-45
2022/12/25 22:29:28;;;;;;;;;3.00;3.00;;;;;20.60;43.55;100809.91;4960749;28;45611;-45
2022/12/25 22:31:53;;;;;;;;;5.75;4.00;;;;;20.62;43.62;100813.28;4963130;28;46238;-47
2022/12/25 22:34:18;;;;;;;;;0.50;0.50;;;;;20.61;43.72;100817.72;4963502;28;45262;-42
2022/12/25 22:36:44;;;;;;;;;4.67;4.67;;;;;20.61;43.69;100830.88;4959492;28;67076;-43
2022/12/25 22:39:09;;;;;;;;;3.50;2.75;;;;;20.62;43.79;100835.22;4960231;28;45512;-41
2022/12/25 22:41:34;;;;;;;;;5.00;3.25;;;;;20.57;43.95;100837.22;4959296;28;47478;-42
2022/12/25 22:44:00;;;;;;;;;4.00;4.00;;;;;20.62;44.12;100850.13;4959504;28;52713;-44
2022/12/25 22:46:25;;;;;;;;;3.00;3.00;;;;;20.61;44.16;100857.22;4961003;28;45390;-41
2022/12/25 22:48:51;;;;;;;;;2.50;2.00;;;;;20.61;43.81;100848.47;4967846;28;45656;-45
2022/12/25 22:51:16;;;;;;;;;4.33;4.00;;;;;20.57;43.94;100841.66;4975786;28;66954;-47
2022/12/25 22:53:41;;;;;;;;;2.00;2.00;;;;;20.60;44.03;100844.97;4963129;28;61062;-43
2022/12/25 22:56:08;;;;;;;;;5.00;2.00;;;;;20.59;43.75;100845.06;4962581;28;58747;-43
2022/12/25 22:58:34;;;;;;;;;1.50;1.50;;;;;20.59;43.95;100851.16;4970622;28;45575;-42
2022/12/25 23:00:59;;;;;;;;;4.00;4.00;;;;;20.54;44.00;100840.06;4977451;28;47957;-42
2022/12/25 23:03:25;;;;;;;;;4.75;3.00;;;;;20.59;44.23;100856.44;4967204;28;45403;-41
2022/12/25 23:05:54;;;;;;;;;4.00;4.00;;;;;20.55;44.18;100849.66;4961316;28;51323;-41
2022/12/25 23:08:20;;;;;;;;;3.00;3.00;;;;;20.54;43.62;100848.78;4962467;28;45175;-42
2022/12/25 23:10:46;;;;;;;;;3.00;3.00;;;;;20.60;43.89;100858.13;4965386;28;46238;-43
2022/12/25 23:15:55;;;;;;;;;4.00;4.00;;;;;20.57;44.12;100855.66;4970984;28;45528;-42
2022/12/25 23:26:32;;;;;;;;;3.50;3.00;;;;;20.58;43.93;100862.63;4967733;28;45338;-42
2022/12/25 23:31:42;;;;;;;;;3.00;3.00;;;;;20.57;43.81;100860.94;4966627;28;45761;-41
2022/12/25 23:34:07;;;;;;;;;3.25;3.25;;;;;20.55;44.26;100868.09;4978484;28;44763;-42
2022/12/25 23:36:33;;;;;;;;;4.50;3.00;;;;;20.57;44.05;100868.84;4963867;28;45245;-41
2022/12/25 23:38:59;;;;;;;;;3.00;3.00;;;;;20.51;44.10;100867.38;4960460;28;45516;-41
2022/12/25 23:41:24;;;;;;;;;2.50;2.50;;;;;20.57;43.96;100883.78;4960070;28;46820;-40
2022/12/25 23:43:50;;;;;;;;;3.00;2.00;;;;;20.57;43.99;100881.16;4962351;28;45284;-43
2022/12/25 23:46:15;;;;;;;;;4.00;3.00;;;;;20.55;43.77;100881.25;4961245;28;45369;-42
2022/12/25 23:48:41;;;;;;;;;3.00;3.00;;;;;20.54;44.18;100892.72;4961604;28;45697;-43
2022/12/25 23:51:06;;;;;;;;;2.75;2.75;;;;;20.57;44.19;100896.97;4959931;28;45730;-45
2022/12/25 23:53:33;;;;;;;;;2.00;2.00;;;;;20.55;44.24;100899.69;4965182;28;45404;-42
2022/12/25 23:55:59;;;;;;;;;3.75;3.75;;;;;20.50;43.74;100888.53;4966163;28;45514;-43
2022/12/25 23:58:26;;;;;;;;;3.00;3.00;;;;;20.55;43.68;100894.44;4962164;28;45433;-42
